Time;durP1;ratioP1;P1;durP2;ratioP2;P2;SDS_P1;SDS_P2;PMS_P1;PMS_P2;Temp;Humidity;BMP_temperature;BMP_pressure;BME280_temperature;BME280_humidity;BME280_pressure;Samples;Min_cycle;Max_cycle;Signal;HPM_P1;HPM_P2
2022/11/05 00:10:06;;;;;;;11.63;4.95;;;5.90;99.90;;;;;;5041295;28;20094;-70
2022/11/05 00:18:17;;;;;;;18.17;4.95;;;5.60;99.90;;;;;;4970268;28;20057;-70
2022/11/05 00:20:43;;;;;;;19.07;4.87;;;5.60;99.90;;;;;;5029628;28;20098;-71
2022/11/05 00:25:58;;;;;;;14.53;5.53;;;5.50;99.90;;;;;;5045411;28;20137;-70
2022/11/05 00:28:25;;;;;;;19.05;5.97;;;5.50;99.90;;;;;;5028716;28;20052;-70
2022/11/05 00:30:51;;;;;;;18.40;5.77;;;5.50;99.90;;;;;;5043588;28;20492;-70
2022/11/05 00:33:17;;;;;;;24.07;6.30;;;5.50;99.90;;;;;;5042030;28;20136;-70
2022/11/05 00:35:43;;;;;;;26.37;6.33;;;5.50;99.90;;;;;;5045294;28;20128;-70
2022/11/05 00:38:08;;;;;;;17.23;5.90;;;5.40;99.90;;;;;;5025534;28;20508;-70
2022/11/05 00:40:34;;;;;;;20.53;6.70;;;5.50;99.90;;;;;;5044749;28;20447;-70
2022/11/05 00:45:44;;;;;;;16.30;5.77;;;5.40;99.90;;;;;;5042061;28;20056;-71
2022/11/05 00:50:54;;;;;;;18.40;6.17;;;5.40;99.90;;;;;;5041869;28;20056;-70
2022/11/05 00:53:20;;;;;;;15.80;5.97;;;5.40;99.90;;;;;;5040567;28;20037;-70
2022/11/05 00:55:46;;;;;;;16.20;5.43;;;5.50;99.90;;;;;;5043918;28;20037;-70
2022/11/05 00:58:17;;;;;;;19.30;5.50;;;5.50;99.90;;;;;;5026892;28;20139;-70
2022/11/05 01:00:54;;;;;;;15.80;6.25;;;5.60;99.90;;;;;;5026873;28;20487;-70
2022/11/05 01:03:27;;;;;;;15.53;5.60;;;5.40;99.90;;;;;;5040975;28;20047;-70
2022/11/05 01:05:55;;;;;;;14.83;5.63;;;5.40;99.90;;;;;;5044585;28;20036;-70
2022/11/05 01:08:24;;;;;;;12.93;5.40;;;5.30;99.90;;;;;;5026615;28;20487;-70
2022/11/05 01:10:55;;;;;;;15.20;4.90;;;5.40;99.90;;;;;;5042133;28;20041;-70
2022/11/05 01:13:25;;;;;;;16.77;5.20;;;5.30;99.90;;;;;;5042276;28;20055;-70
2022/11/05 01:15:51;;;;;;;19.07;6.00;;;5.30;99.90;;;;;;5040411;28;20048;-70
2022/11/05 01:18:18;;;;;;;12.30;5.43;;;5.30;99.90;;;;;;5025817;28;20519;-70
2022/11/05 01:20:43;;;;;;;18.60;5.70;;;5.20;99.90;;;;;;5024431;28;20048;-70
2022/11/05 01:23:09;;;;;;;13.80;5.00;;;5.20;99.90;;;;;;5022999;28;20037;-70
2022/11/05 01:25:35;;;;;;;17.00;5.27;;;5.20;99.90;;;;;;5040570;28;20036;-70
2022/11/05 01:28:02;;;;;;;15.73;5.10;;;5.10;99.90;;;;;;5026771;28;20048;-70
2022/11/05 01:30:30;;;;;;;16.23;5.50;;;5.30;99.90;;;;;;5024316;28;20041;-71
2022/11/05 01:32:55;;;;;;;14.67;4.80;;;5.20;99.90;;;;;;5039754;28;20052;-70
2022/11/05 01:35:21;;;;;;;14.47;4.97;;;5.10;99.90;;;;;;5043484;28;20056;-70
2022/11/05 01:37:47;;;;;;;17.73;5.23;;;5.20;99.90;;;;;;5028190;28;20399;-70
2022/11/05 01:40:18;;;;;;;18.70;5.20;;;5.40;99.90;;;;;;5043017;28;20049;-70
2022/11/05 01:42:44;;;;;;;15.70;5.20;;;5.20;99.90;;;;;;5039689;28;20044;-70
2022/11/05 01:45:11;;;;;;;16.70;4.97;;;5.30;99.90;;;;;;5044010;28;20041;-70
2022/11/05 01:48:03;;;;;;;12.77;4.80;;;5.20;99.90;;;;;;5026704;28;20484;-71
2022/11/05 01:50:43;;;;;;;17.13;5.07;;;5.20;99.90;;;;;;5041380;28;20057;-70
2022/11/05 01:53:20;;;;;;;19.47;5.37;;;5.20;99.90;;;;;;5039624;28;20214;-70
2022/11/05 01:55:56;;;;;;;20.97;5.10;;;5.30;99.90;;;;;;5042043;28;20056;-70
2022/11/05 01:58:24;;;;;;;14.83;4.43;;;5.30;99.90;;;;;;5026791;28;20079;-70
2022/11/05 02:00:50;;;;;;;10.50;4.50;;;5.20;99.90;;;;;;5042767;28;20063;-70
2022/11/05 02:03:17;;;;;;;14.83;4.50;;;5.20;99.90;;;;;;5039992;28;20041;-70
2022/11/05 02:05:44;;;;;;;13.10;4.30;;;5.30;99.90;;;;;;5044071;28;20041;-70
2022/11/05 02:08:16;;;;;;;16.73;4.47;;;5.20;99.90;;;;;;5026248;28;20045;-70
2022/11/05 02:10:44;;;;;;;12.90;4.20;;;5.20;99.90;;;;;;5041516;28;20052;-70
2022/11/05 02:13:09;;;;;;;14.87;4.33;;;5.20;99.90;;;;;;5041176;28;20051;-70
2022/11/05 02:16:02;;;;;;;21.40;5.37;;;5.20;99.90;;;;;;5041496;28;20048;-70
2022/11/05 02:18:30;;;;;;;13.83;4.27;;;5.30;99.90;;;;;;5025611;28;20527;-70
2022/11/05 02:21:17;;;;;;;14.37;4.40;;;5.30;99.90;;;;;;5041397;28;20037;-70
2022/11/05 02:24:01;;;;;;;14.73;3.90;;;5.30;99.90;;;;;;5024927;28;20040;-70
2022/11/05 02:26:47;;;;;;;14.80;4.53;;;5.30;99.90;;;;;;5013181;28;20502;-70
2022/11/05 02:29:33;;;;;;;11.03;3.90;;;5.20;99.90;;;;;;5041349;28;20091;-70
2022/11/05 02:32:09;;;;;;;16.63;4.07;;;5.20;99.90;;;;;;5039749;28;20538;-71
2022/11/05 02:34:44;;;;;;;13.60;3.97;;;5.20;99.90;;;;;;5043785;28;20133;-70
2022/11/05 02:37:28;;;;;;;16.60;3.83;;;5.30;99.90;;;;;;5032134;28;20427;-70
2022/11/05 02:40:16;;;;;;;10.80;3.60;;;5.20;99.90;;;;;;5044768;28;20053;-70
2022/11/05 02:42:57;;;;;;;9.77;3.60;;;5.20;99.90;;;;;;5043424;28;20045;-70
2022/11/05 02:45:47;;;;;;;15.80;3.65;;;5.30;99.90;;;;;;5044712;28;20589;-70
2022/11/05 02:48:29;;;;;;;10.80;3.63;;;5.30;99.90;;;;;;5011725;28;20558;-70
2022/11/05 02:51:04;;;;;;;12.07;4.13;;;5.40;99.90;;;;;;5044369;28;20462;-70
2022/11/05 02:53:45;;;;;;;11.50;3.27;;;5.40;99.90;;;;;;5042798;28;20048;-70
2022/11/05 02:56:21;;;;;;;11.52;3.42;;;5.50;99.90;;;;;;5037674;28;20464;-71
2022/11/05 02:58:47;;;;;;;11.50;3.73;;;5.50;99.90;;;;;;5042536;28;20084;-71
2022/11/05 03:01:13;;;;;;;10.90;3.43;;;5.50;99.90;;;;;;5043963;28;20095;-71
2022/11/05 03:03:51;;;;;;;8.83;3.17;;;5.50;99.90;;;;;;5044538;28;20128;-70
2022/11/05 03:06:16;;;;;;;10.07;3.40;;;5.50;99.90;;;;;;5035658;28;20052;-71
2022/11/05 03:08:53;;;;;;;13.17;3.57;;;5.50;99.90;;;;;;5023269;28;20037;-70
2022/11/05 03:11:25;;;;;;;14.23;4.13;;;5.60;99.90;;;;;;5042237;28;20122;-70
2022/11/05 03:14:05;;;;;;;14.07;3.40;;;5.60;99.90;;;;;;5041671;28;20412;-70
2022/11/05 03:16:45;;;;;;;22.15;4.40;;;5.70;99.90;;;;;;5033069;28;20049;-71
2022/11/05 03:19:31;;;;;;;9.10;4.07;;;5.70;99.90;;;;;;5044463;28;20107;-70
2022/11/05 03:22:07;;;;;;;16.77;4.20;;;5.70;99.90;;;;;;5042538;28;20041;-70
2022/11/05 03:24:37;;;;;;;8.87;3.60;;;5.80;99.90;;;;;;5041600;28;20304;-70
2022/11/05 03:27:11;;;;;;;10.27;4.20;;;5.80;99.90;;;;;;5028716;28;20049;-70
2022/11/05 03:29:47;;;;;;;8.53;3.37;;;5.70;99.90;;;;;;5044011;28;20052;-70
2022/11/05 03:32:16;;;;;;;10.40;3.73;;;5.80;99.90;;;;;;5041753;28;20049;-71
2022/11/05 03:34:46;;;;;;;12.83;3.53;;;5.70;99.90;;;;;;5043379;28;20045;-70
2022/11/05 03:37:15;;;;;;;11.13;3.75;;;5.60;99.90;;;;;;5031161;28;20048;-71
2022/11/05 03:39:46;;;;;;;10.97;3.50;;;5.80;99.90;;;;;;5043009;28;20120;-71
2022/11/05 03:42:16;;;;;;;10.30;3.60;;;5.90;99.90;;;;;;5044307;28;20175;-70
2022/11/05 03:44:48;;;;;;;10.07;3.07;;;5.90;99.90;;;;;;5043167;28;20049;-71
2022/11/05 03:47:37;;;;;;;19.20;3.87;;;5.90;99.90;;;;;;5028107;28;20861;-70
2022/11/05 03:50:08;;;;;;;11.23;3.40;;;5.90;99.90;;;;;;5042819;28;20055;-71
2022/11/05 03:52:42;;;;;;;10.47;3.07;;;6.00;99.90;;;;;;5041663;28;20043;-70
2022/11/05 03:55:09;;;;;;;14.07;3.43;;;6.00;99.90;;;;;;5044625;28;20062;-70
2022/11/05 03:57:38;;;;;;;10.80;3.13;;;6.00;99.90;;;;;;5028023;28;20044;-71
2022/11/05 04:00:09;;;;;;;12.87;3.10;;;6.00;99.90;;;;;;5044048;28;20045;-70
2022/11/05 04:02:37;;;;;;;8.98;3.63;;;6.00;99.90;;;;;;5041500;28;20045;-70
2022/11/05 04:05:03;;;;;;;11.00;3.20;;;6.10;99.90;;;;;;5043723;28;20130;-70
2022/11/05 04:18:25;;;;;;;14.57;3.63;;;6.30;99.90;;;;;;5027968;28;20060;-71
2022/11/05 04:26:22;;;;;;;13.37;3.13;;;6.40;99.90;;;;;;5033045;28;20091;-72
2022/11/05 04:31:36;;;;;;;10.03;3.60;;;6.30;99.90;;;;;;5041946;28;20102;-70
2022/11/05 04:34:02;;;;;;;9.13;3.03;;;6.30;99.90;;;;;;5042080;28;20056;-70
2022/11/05 04:36:28;;;;;;;13.53;3.63;;;6.20;99.90;;;;;;5031209;28;20040;-71
2022/11/05 04:38:54;;;;;;;12.07;3.17;;;6.20;99.90;;;;;;5039229;28;20060;-71
2022/11/05 04:41:19;;;;;;;10.27;3.10;;;6.00;99.90;;;;;;5024906;28;20132;-70
2022/11/05 04:43:45;;;;;;;7.47;3.00;;;6.10;99.90;;;;;;5042557;28;20041;-71
2022/11/05 04:46:11;;;;;;;12.47;3.27;;;6.00;99.90;;;;;;5034971;28;20416;-71
2022/11/05 04:48:37;;;;;;;10.33;3.37;;;6.00;99.90;;;;;;5034947;28;20041;-71
2022/11/05 04:51:03;;;;;;;10.00;3.30;;;6.00;99.90;;;;;;5008885;28;20606;-71
2022/11/05 04:53:30;;;;;;;13.67;3.03;;;6.00;99.90;;;;;;5023332;28;20040;-71
2022/11/05 04:56:11;;;;;;;9.80;3.37;;;6.00;99.90;;;;;;5043452;28;20053;-71
2022/11/05 04:58:39;;;;;;;7.77;2.70;;;5.90;99.90;;;;;;5036404;28;20041;-70
2022/11/05 05:01:05;;;;;;;11.30;2.97;;;6.00;99.90;;;;;;5039231;28;20080;-71
2022/11/05 05:03:31;;;;;;;8.30;2.90;;;5.90;99.90;;;;;;5043755;28;20045;-71
2022/11/05 05:05:59;;;;;;;8.17;2.63;;;5.80;99.90;;;;;;5044595;28;20064;-71
2022/11/05 05:08:25;;;;;;;12.43;3.10;;;5.90;99.90;;;;;;5027430;28;20048;-70
2022/11/05 05:10:51;;;;;;;10.47;3.27;;;5.90;99.90;;;;;;5044727;28;20323;-70
2022/11/05 05:13:16;;;;;;;7.50;2.80;;;5.60;99.90;;;;;;5041504;28;20408;-70
2022/11/05 05:15:42;;;;;;;9.00;3.53;;;5.60;99.90;;;;;;5043987;28;20222;-71
2022/11/05 05:18:08;;;;;;;12.87;4.60;;;5.70;99.90;;;;;;5011368;28;20286;-70
2022/11/05 05:23:18;;;;;;;12.33;3.50;;;5.50;99.90;;;;;;5034911;28;20094;-71
2022/11/05 05:25:43;;;;;;;11.80;3.90;;;5.50;99.90;;;;;;5043027;28;20057;-70
2022/11/05 05:28:09;;;;;;;11.60;3.17;;;5.40;99.90;;;;;;5015273;28;20519;-71
2022/11/05 05:30:34;;;;;;;10.50;3.80;;;5.40;99.90;;;;;;5043080;28;20087;-70
2022/11/05 05:33:02;;;;;;;13.60;3.80;;;5.40;99.90;;;;;;5016638;28;20140;-70
2022/11/05 05:35:28;;;;;;;10.63;4.90;;;5.50;99.90;;;;;;5037803;28;20534;-71
2022/11/05 05:37:55;;;;;;;12.40;4.93;;;5.30;99.90;;;;;;5010178;28;20127;-70
2022/11/05 05:40:21;;;;;;;12.33;4.63;;;5.30;99.90;;;;;;5035297;28;20499;-70
2022/11/05 05:42:47;;;;;;;13.60;4.60;;;5.40;99.90;;;;;;5025106;28;20412;-71
2022/11/05 05:45:12;;;;;;;16.40;7.93;;;5.30;99.90;;;;;;5040867;28;20046;-71
2022/11/05 05:47:38;;;;;;;18.23;6.87;;;5.30;99.90;;;;;;5023793;28;20037;-70
2022/11/05 05:50:04;;;;;;;17.70;7.00;;;5.30;99.90;;;;;;5034879;28;20057;-70
2022/11/05 05:52:30;;;;;;;18.90;6.83;;;5.30;99.90;;;;;;5044025;28;20041;-70
2022/11/05 05:54:56;;;;;;;16.00;7.30;;;5.40;99.90;;;;;;5045063;28;20041;-70
2022/11/05 05:57:22;;;;;;;18.00;9.00;;;5.40;99.90;;;;;;5031062;28;20397;-70
2022/11/05 05:59:47;;;;;;;14.87;7.60;;;5.50;99.90;;;;;;5027319;28;20515;-71
2022/11/05 06:02:13;;;;;;;15.53;7.27;;;5.60;99.90;;;;;;5026754;28;20095;-70
2022/11/05 06:04:38;;;;;;;15.17;7.20;;;5.60;99.90;;;;;;5026559;28;20057;-70
2022/11/05 06:07:04;;;;;;;12.47;6.20;;;5.60;99.90;;;;;;5025268;28;20044;-72
2022/11/05 06:09:30;;;;;;;14.67;6.87;;;5.60;99.90;;;;;;5047838;28;20122;-71
2022/11/05 06:11:55;;;;;;;18.07;6.60;;;5.60;99.90;;;;;;5040091;28;20530;-70
2022/11/05 06:14:21;;;;;;;14.40;6.57;;;5.60;99.90;;;;;;5046013;28;20053;-71
2022/11/05 06:16:46;;;;;;;13.80;6.73;;;5.60;99.90;;;;;;5031443;28;20099;-71
2022/11/05 06:19:12;;;;;;;15.97;7.50;;;5.60;99.90;;;;;;5045799;28;20053;-70
2022/11/05 06:21:38;;;;;;;16.17;8.20;;;5.70;99.90;;;;;;5048034;28;20800;-70
2022/11/05 06:24:04;;;;;;;14.17;8.23;;;5.70;99.90;;;;;;5047503;28;20076;-70
2022/11/05 06:26:29;;;;;;;20.87;8.60;;;5.60;99.90;;;;;;5022784;28;20831;-71
2022/11/05 06:28:55;;;;;;;17.67;8.90;;;5.60;99.90;;;;;;5026215;28;20053;-70
2022/11/05 06:31:22;;;;;;;19.13;9.07;;;5.70;99.90;;;;;;5024957;28;20087;-70
2022/11/05 06:33:47;;;;;;;18.97;8.70;;;5.60;99.90;;;;;;5012340;28;20068;-70
2022/11/05 06:36:16;;;;;;;15.83;8.83;;;5.80;99.90;;;;;;5036748;28;20481;-71
2022/11/05 06:38:41;;;;;;;21.43;11.73;;;5.70;99.90;;;;;;5045790;28;20044;-71
2022/11/05 06:41:08;;;;;;;18.37;8.63;;;5.70;99.90;;;;;;5050030;28;20492;-70
2022/11/05 06:43:33;;;;;;;17.57;8.57;;;5.70;99.90;;;;;;5044917;28;20551;-70
2022/11/05 06:46:01;;;;;;;31.90;12.50;;;5.60;99.90;;;;;;5042340;28;20053;-70
2022/11/05 06:48:27;;;;;;;22.63;11.17;;;5.70;99.90;;;;;;5016432;28;20076;-70
2022/11/05 06:50:53;;;;;;;15.90;8.67;;;5.60;99.90;;;;;;5049431;28;20063;-71
2022/11/05 06:53:20;;;;;;;154.83;70.27;;;5.60;99.90;;;;;;5024861;28;20045;-70
2022/11/05 06:55:48;;;;;;;80.63;39.27;;;5.60;99.90;;;;;;5029722;28;20055;-70
2022/11/05 06:58:15;;;;;;;18.83;11.57;;;5.60;99.90;;;;;;5032950;28;20055;-70
2022/11/05 07:00:40;;;;;;;14.03;7.83;;;5.50;99.90;;;;;;5049240;28;20124;-70
2022/11/05 07:03:16;;;;;;;16.93;7.70;;;5.60;99.90;;;;;;5029676;28;20136;-70
2022/11/05 07:05:45;;;;;;;14.57;7.80;;;5.60;99.90;;;;;;5029004;28;20523;-70
2022/11/05 07:08:11;;;;;;;17.10;8.23;;;5.50;99.90;;;;;;5014351;28;20061;-70
2022/11/05 07:10:36;;;;;;;12.73;7.83;;;5.40;99.90;;;;;;5042091;28;20535;-70
2022/11/05 07:13:02;;;;;;;20.90;8.17;;;5.50;99.90;;;;;;5029695;28;20103;-70
2022/11/05 07:15:27;;;;;;;16.07;8.70;;;5.60;99.90;;;;;;5029022;28;20052;-70
2022/11/05 07:17:58;;;;;;;16.27;8.80;;;5.60;99.90;;;;;;5022103;28;20051;-71
2022/11/05 07:20:24;;;;;;;20.40;9.10;;;5.60;99.90;;;;;;5043987;28;20083;-71
2022/11/05 07:22:49;;;;;;;18.63;8.17;;;5.70;99.90;;;;;;5031650;28;20060;-70
2022/11/05 07:25:15;;;;;;;19.37;7.83;;;5.60;99.90;;;;;;5041900;28;20059;-70
2022/11/05 07:27:41;;;;;;;19.13;8.30;;;5.70;99.90;;;;;;5012007;28;20128;-70
2022/11/05 07:30:10;;;;;;;15.43;7.37;;;5.80;99.90;;;;;;5046962;28;20044;-70
2022/11/05 07:32:37;;;;;;;11.77;7.67;;;6.10;99.90;;;;;;5031026;28;20048;-71
2022/11/05 07:35:03;;;;;;;12.87;6.37;;;6.20;99.90;;;;;;5050228;28;20072;-70
2022/11/05 07:37:29;;;;;;;17.83;7.33;;;6.20;99.90;;;;;;5027977;28;20896;-70
2022/11/05 07:39:54;;;;;;;11.10;7.37;;;6.10;99.90;;;;;;5029805;28;20046;-70
2022/11/05 07:42:20;;;;;;;12.07;7.13;;;6.20;99.90;;;;;;5035770;28;20546;-70
2022/11/05 07:44:46;;;;;;;11.30;6.17;;;6.10;99.90;;;;;;5042261;28;20538;-70
2022/11/05 07:47:11;;;;;;;14.27;6.47;;;6.20;99.90;;;;;;5025529;28;20088;-70
2022/11/05 07:49:37;;;;;;;14.83;6.70;;;6.20;99.90;;;;;;5043157;28;20088;-70
2022/11/05 07:52:03;;;;;;;13.33;7.67;;;6.30;99.90;;;;;;5043317;28;20543;-71
2022/11/05 07:54:28;;;;;;;11.30;7.37;;;6.30;99.90;;;;;;5029099;28;20045;-70
2022/11/05 07:56:54;;;;;;;13.00;6.97;;;6.20;99.90;;;;;;5026829;28;20498;-70
2022/11/05 07:59:19;;;;;;;13.63;6.93;;;6.30;99.90;;;;;;5043251;28;20041;-71
2022/11/05 08:01:45;;;;;;;12.83;7.10;;;6.30;99.90;;;;;;5038422;28;20357;-70
2022/11/05 08:04:11;;;;;;;13.53;7.70;;;6.20;99.90;;;;;;5042201;28;20501;-71
2022/11/05 08:06:37;;;;;;;13.67;7.30;;;6.50;99.90;;;;;;5033959;28;20459;-70
2022/11/05 08:09:03;;;;;;;13.43;7.50;;;6.40;99.90;;;;;;5028150;28;20072;-71
2022/11/05 08:11:28;;;;;;;13.70;7.40;;;6.60;99.90;;;;;;5038998;28;20067;-70
2022/11/05 08:13:54;;;;;;;17.30;7.27;;;6.60;99.90;;;;;;5030953;28;20128;-70
2022/11/05 08:16:19;;;;;;;17.33;7.63;;;6.60;99.90;;;;;;5028191;28;20570;-71
2022/11/05 08:18:45;;;;;;;12.53;7.13;;;6.70;99.90;;;;;;5022588;28;20089;-70
2022/11/05 08:21:11;;;;;;;14.07;7.30;;;6.80;99.90;;;;;;5038980;28;20120;-70
2022/11/05 08:23:38;;;;;;;13.97;7.60;;;6.90;99.90;;;;;;5026550;28;20123;-70
2022/11/05 08:26:04;;;;;;;20.93;8.70;;;7.00;99.90;;;;;;5035505;28;20045;-70
2022/11/05 08:28:30;;;;;;;17.03;8.20;;;7.20;99.90;;;;;;4994445;28;20045;-70
2022/11/05 08:30:56;;;;;;;13.67;7.90;;;7.40;99.90;;;;;;5027063;28;20096;-70
2022/11/05 08:33:23;;;;;;;14.40;7.33;;;7.60;99.90;;;;;;5026532;28;20052;-71
2022/11/05 08:35:50;;;;;;;10.87;6.60;;;7.90;99.90;;;;;;5027206;28;20060;-71
2022/11/05 08:38:18;;;;;;;10.37;6.00;;;8.10;99.90;;;;;;5030837;28;20053;-71
2022/11/05 08:40:54;;;;;;;10.93;5.93;;;8.30;99.90;;;;;;5036375;28;20582;-71
2022/11/05 08:43:20;;;;;;;13.03;6.07;;;8.40;99.90;;;;;;5038278;28;20052;-70
2022/11/05 08:45:46;;;;;;;13.00;6.53;;;8.50;99.90;;;;;;5035851;28;20052;-71
2022/11/05 08:48:14;;;;;;;12.67;5.70;;;8.50;99.90;;;;;;5020745;28;20806;-71
2022/11/05 08:50:40;;;;;;;11.17;5.30;;;8.60;99.90;;;;;;5052021;28;20634;-71
2022/11/05 08:53:07;;;;;;;14.03;5.20;;;8.70;99.90;;;;;;5038689;28;20114;-71
2022/11/05 08:55:34;;;;;;;11.33;5.30;;;8.90;99.90;;;;;;5040066;28;20048;-71
2022/11/05 08:58:01;;;;;;;15.80;5.30;;;9.00;99.90;;;;;;5021056;28;20099;-71
2022/11/05 09:00:31;;;;;;;9.93;4.77;;;9.00;99.90;;;;;;5037021;28;20116;-71
2022/11/05 09:03:05;;;;;;;11.27;4.93;;;9.10;99.90;;;;;;5039061;28;20518;-71
2022/11/05 09:05:37;;;;;;;10.13;4.83;;;9.10;99.90;;;;;;5043428;28;20060;-71
2022/11/05 09:08:06;;;;;;;;;;;9.30;99.90;;;;;;5014430;28;20051;-71
2022/11/05 09:10:33;;;;;;;9.30;4.40;;;9.20;99.90;;;;;;5032659;28;20375;-71
2022/11/05 09:12:59;;;;;;;10.17;4.17;;;9.30;99.90;;;;;;5034806;28;20033;-71
2022/11/05 09:15:24;;;;;;;10.73;4.23;;;9.30;99.90;;;;;;5029824;28;20064;-72
2022/11/05 09:17:50;;;;;;;13.07;4.20;;;9.40;99.90;;;;;;5020654;28;20065;-71
2022/11/05 09:20:16;;;;;;;11.90;4.03;;;9.50;99.90;;;;;;5030062;28;20053;-71
2022/11/05 09:22:42;;;;;;;8.07;3.60;;;9.50;99.90;;;;;;5026195;28;20674;-71
2022/11/05 09:25:08;;;;;;;9.07;3.93;;;9.50;99.90;;;;;;5039656;28;20041;-71
2022/11/05 09:27:34;;;;;;;7.77;3.87;;;9.60;99.90;;;;;;5011634;28;20418;-71
2022/11/05 09:30:00;;;;;;;10.53;4.30;;;9.60;99.90;;;;;;5043999;28;20053;-71
2022/11/05 09:32:25;;;;;;;10.03;3.70;;;9.70;99.90;;;;;;5045315;28;20049;-72
2022/11/05 09:34:51;;;;;;;12.37;4.10;;;9.70;99.90;;;;;;5030149;28;20060;-71
2022/11/05 09:37:17;;;;;;;9.23;3.70;;;9.60;99.90;;;;;;5014473;28;20060;-71
2022/11/05 09:39:42;;;;;;;8.77;3.87;;;9.80;99.90;;;;;;5026512;28;20068;-71
2022/11/05 09:42:11;;;;;;;7.67;3.00;;;9.90;99.90;;;;;;5020632;28;20067;-71
2022/11/05 09:44:41;;;;;;;18.43;4.70;;;9.90;99.90;;;;;;5029109;28;20049;-71
2022/11/05 09:47:13;;;;;;;14.27;4.20;;;10.20;99.90;;;;;;5014677;28;20045;-72
2022/11/05 09:49:43;;;;;;;12.60;3.30;;;10.30;99.90;;;;;;5033730;28;20053;-71
2022/11/05 09:52:18;;;;;;;6.87;3.47;;;10.40;99.90;;;;;;5049195;28;20051;-71
2022/11/05 09:54:47;;;;;;;7.93;2.90;;;10.40;99.90;;;;;;5034072;28;20049;-71
2022/11/05 09:57:21;;;;;;;7.43;3.20;;;10.50;99.90;;;;;;5035662;28;20055;-71
2022/11/05 09:59:54;;;;;;;6.93;2.90;;;10.50;99.90;;;;;;5051537;28;20044;-71
2022/11/05 10:02:26;;;;;;;7.60;2.27;;;10.60;99.90;;;;;;5048397;28;20057;-70
2022/11/05 10:05:03;;;;;;;17.90;3.75;;;10.70;99.90;;;;;;5030725;28;20053;-71
2022/11/05 10:07:34;;;;;;;11.68;3.60;;;10.70;99.90;;;;;;5017489;28;20048;-72
2022/11/05 10:10:03;;;;;;;7.28;3.28;;;10.70;99.90;;;;;;5051462;28;20049;-71
2022/11/05 10:12:47;;;;;;;6.47;2.72;;;10.80;99.90;;;;;;5030882;28;20045;-71
2022/11/05 10:15:19;;;;;;;6.50;2.97;;;11.00;99.90;;;;;;5044040;28;20037;-71
2022/11/05 10:17:55;;;;;;;7.00;2.58;;;11.00;99.90;;;;;;5033582;28;20041;-71
2022/11/05 10:20:30;;;;;;;7.82;2.85;;;11.10;99.90;;;;;;5050080;28;20049;-71
2022/11/05 10:23:00;;;;;;;16.60;3.72;;;11.30;99.90;;;;;;5049182;28;20744;-72
2022/11/05 10:25:38;;;;;;;7.43;2.72;;;11.70;99.90;;;;;;5050090;28;20411;-71
2022/11/05 10:28:06;;;;;;;7.43;2.65;;;12.10;99.90;;;;;;5033296;28;20045;-71
2022/11/05 10:30:32;;;;;;;8.68;2.60;;;12.20;99.90;;;;;;5049817;28;20144;-72
2022/11/05 10:33:01;;;;;;;11.23;3.13;;;12.30;99.90;;;;;;5065725;28;20073;-72
2022/11/05 10:35:31;;;;;;;4.43;2.47;;;12.30;99.90;;;;;;5051142;28;20045;-72
2022/11/05 10:37:57;;;;;;;5.80;2.47;;;12.40;99.90;;;;;;5022063;28;20492;-71
2022/11/05 10:40:45;;;;;;;7.03;2.47;;;12.50;99.90;;;;;;5037736;28;20076;-71
2022/11/05 10:43:27;;;;;;;8.00;2.53;;;12.40;99.90;;;;;;5038399;28;20049;-72
2022/11/05 10:46:15;;;;;;;7.20;2.38;;;12.30;99.90;;;;;;5044035;28;20473;-71
2022/11/05 10:48:53;;;;;;;7.75;2.58;;;12.30;99.90;;;;;;5026842;28;20045;-72
2022/11/05 10:51:18;;;;;;;7.15;2.30;;;12.30;99.90;;;;;;5044134;28;20060;-71
2022/11/05 10:53:54;;;;;;;5.78;2.45;;;12.10;99.90;;;;;;5047931;28;20078;-72
2022/11/05 10:56:33;;;;;;;7.78;2.20;;;11.90;99.90;;;;;;5038193;28;20037;-71
2022/11/05 10:59:00;;;;;;;6.25;2.17;;;12.20;99.90;;;;;;5033506;28;20049;-71
2022/11/05 11:01:27;;;;;;;9.65;2.70;;;12.40;99.90;;;;;;5036986;28;20443;-71
2022/11/05 11:04:06;;;;;;;9.05;2.25;;;12.50;99.90;;;;;;5029780;28;20068;-72
2022/11/05 11:06:36;;;;;;;8.38;2.38;;;12.80;99.90;;;;;;5019073;28;20504;-72
2022/11/05 11:09:06;;;;;;;10.88;2.75;;;12.60;99.90;;;;;;5029704;28;20048;-72
2022/11/05 11:11:41;;;;;;;6.75;2.80;;;12.60;99.90;;;;;;5049097;28;20127;-71
2022/11/05 11:14:12;;;;;;;7.25;2.30;;;12.70;99.90;;;;;;5047940;28;20053;-72
2022/11/05 11:16:41;;;;;;;7.72;2.22;;;12.70;99.90;;;;;;5017997;28;20049;-72
2022/11/05 11:19:27;;;;;;;7.43;2.15;;;13.20;99.90;;;;;;5041507;28;20056;-71
2022/11/05 11:22:02;;;;;;;6.78;2.25;;;13.40;99.90;;;;;;5046206;28;20400;-71
2022/11/05 11:24:49;;;;;;;6.13;2.10;;;13.50;99.90;;;;;;5047504;28;20060;-72
2022/11/05 11:27:25;;;;;;;8.18;1.90;;;13.40;99.90;;;;;;5031986;28;20052;-72
2022/11/05 11:29:59;;;;;;;7.57;1.83;;;13.30;99.90;;;;;;5050130;28;20045;-71
2022/11/05 11:32:31;;;;;;;7.18;2.13;;;13.70;99.90;;;;;;5049133;28;20048;-72
2022/11/05 11:34:58;;;;;;;5.75;1.60;;;13.80;99.90;;;;;;5049012;28;20045;-72
2022/11/05 11:37:34;;;;;;;7.15;1.83;;;13.30;99.90;;;;;;5034514;28;20045;-72
2022/11/05 11:40:29;;;;;;;6.05;1.70;;;13.10;99.90;;;;;;5050226;28;20045;-72
2022/11/05 11:42:59;;;;;;;6.90;2.00;;;13.00;99.90;;;;;;5046448;28;20050;-72
2022/11/05 11:45:43;;;;;;;6.25;1.90;;;12.70;99.90;;;;;;5043782;28;20037;-71
2022/11/05 11:48:16;;;;;;;6.82;1.92;;;12.90;99.90;;;;;;5029985;28;20096;-71
2022/11/05 11:50:44;;;;;;;4.45;1.77;;;12.50;99.90;;;;;;5039556;28;20051;-72
2022/11/05 11:53:19;;;;;;;6.18;1.80;;;12.20;99.90;;;;;;5041655;28;20516;-71
2022/11/05 11:55:54;;;;;;;5.68;1.80;;;12.30;99.90;;;;;;5041402;28;20120;-71
2022/11/05 11:58:21;;;;;;;5.30;1.88;;;11.90;99.90;;;;;;5023660;28;20060;-71
2022/11/05 12:00:56;;;;;;;8.13;1.88;;;11.80;99.90;;;;;;5039356;28;20033;-71
2022/11/05 12:03:51;;;;;;;6.00;2.10;;;11.70;99.90;;;;;;5038960;28;20045;-71
2022/11/05 12:07:02;;;;;;;5.63;2.35;;;11.60;99.90;;;;;;5034379;28;20052;-71
2022/11/05 12:09:44;;;;;;;8.65;1.77;;;11.50;99.90;;;;;;5038612;28;20056;-71
2022/11/05 12:12:13;;;;;;;3.58;1.80;;;11.40;99.90;;;;;;5035607;28;20056;-71
2022/11/05 12:14:50;;;;;;;4.10;1.60;;;11.50;99.90;;;;;;5037502;28;20124;-71
2022/11/05 12:17:35;;;;;;;8.55;1.83;;;11.50;99.90;;;;;;5015425;28;20116;-71
2022/11/05 12:20:29;;;;;;;5.15;1.33;;;11.40;99.90;;;;;;5046223;28;20037;-70
2022/11/05 12:23:11;;;;;;;3.60;1.00;;;11.40;99.90;;;;;;5026384;28;20038;-71
2022/11/05 12:25:55;;;;;;;5.93;0.88;;;11.30;99.90;;;;;;5027708;28;20128;-71
2022/11/05 12:28:48;;;;;;;3.58;0.60;;;11.20;99.90;;;;;;5012516;28;20045;-71
2022/11/05 12:31:25;;;;;;;1.20;0.60;;;11.20;99.90;;;;;;5041643;28;20045;-71
2022/11/05 12:34:03;;;;;;;4.82;0.52;;;11.20;99.90;;;;;;5037181;28;20713;-71
2022/11/05 12:37:02;;;;;;;5.85;0.80;;;11.10;99.90;;;;;;5026382;28;20045;-71
2022/11/05 12:39:40;;;;;;;4.18;0.93;;;11.10;99.90;;;;;;5029607;28;20134;-71
2022/11/05 12:42:48;;;;;;;4.65;0.70;;;11.00;99.90;;;;;;5039474;28;20053;-72
2022/11/05 12:45:43;;;;;;;2.80;0.45;;;10.90;99.90;;;;;;5027417;28;20053;-71
2022/11/05 12:48:29;;;;;;;3.35;0.50;;;10.80;99.90;;;;;;5019327;28;20049;-71
2022/11/05 12:51:20;;;;;;;9.57;1.20;;;10.70;99.90;;;;;;5017379;28;20416;-71
2022/11/05 13:24:57;;;;;;;5.73;1.20;;;9.60;99.90;;;;;;6011103;23;21034;-90
2022/11/05 13:27:59;;;;;;;4.33;1.03;;;9.60;99.90;;;;;;4986864;28;20054;-92
2022/11/05 13:30:36;;;;;;;5.07;1.23;;;9.70;99.90;;;;;;4929639;28;20059;-90
2022/11/05 13:33:30;;;;;;;5.27;1.60;;;9.70;99.90;;;;;;4955527;28;20055;-91
2022/11/05 13:39:29;;;;;;;4.77;1.50;;;9.90;99.90;;;;;;4969363;28;20071;-88
2022/11/05 13:42:03;;;;;;;7.07;3.10;;;9.90;99.90;;;;;;4968072;28;20130;-89
2022/11/05 13:45:07;;;;;;;6.53;3.10;;;9.90;99.90;;;;;;4986247;28;20480;-89
2022/11/05 13:47:51;;;;;;;5.77;3.00;;;10.00;99.90;;;;;;4977920;28;20054;-89
2022/11/05 13:50:52;;;;;;;5.13;2.40;;;10.00;99.90;;;;;;4967256;28;20118;-90
2022/11/05 14:00:16;;;;;;;6.40;1.53;;;10.00;99.90;;;;;;4979327;23;20117;-74
2022/11/05 14:02:55;;;;;;;4.05;1.73;;;10.10;99.90;;;;;;4986570;28;20058;-74
2022/11/05 14:05:33;;;;;;;5.50;2.08;;;10.10;99.90;;;;;;4971832;28;20050;-74
2022/11/05 14:08:06;;;;;;;6.38;2.50;;;10.00;99.90;;;;;;4978877;28;20066;-74
2022/11/05 14:10:37;;;;;;;8.77;2.22;;;10.00;99.90;;;;;;4983702;28;20063;-74
2022/11/05 14:13:23;;;;;;;6.85;2.30;;;10.10;99.90;;;;;;4988417;23;20055;-74
2022/11/05 14:16:19;;;;;;;11.20;2.83;;;10.10;99.90;;;;;;4951739;28;20066;-74
2022/11/05 14:18:46;;;;;;;6.10;2.83;;;10.20;99.90;;;;;;4951753;29;20149;-74
2022/11/05 14:21:24;;;;;;;5.53;2.90;;;10.20;99.90;;;;;;4958040;28;20049;-75
2022/11/05 16:49:16;;;;;;;13.30;8.13;;;9.20;99.90;;;;;;5058133;27;20386;-70
2022/11/05 16:51:42;;;;;;;15.47;9.07;;;9.10;99.90;;;;;;5044222;28;20069;-75
2022/11/05 16:54:08;;;;;;;13.73;9.33;;;9.10;99.90;;;;;;5042930;28;20504;-75
2022/11/05 16:56:34;;;;;;;18.93;9.30;;;9.10;99.90;;;;;;5014065;28;20045;-75
2022/11/05 16:59:01;;;;;;;15.23;8.80;;;9.00;99.90;;;;;;5021408;28;20041;-75
2022/11/05 17:01:27;;;;;;;17.47;9.67;;;9.00;99.90;;;;;;4138198;28;10000857;-75